Time;durP1;ratioP1;P1;durP2;ratioP2;P2;SDS_P1;SDS_P2;PMS_P1;PMS_P2;Temp;Humidity;BMP_temperature;BMP_pressure;BME280_temperature;BME280_humidity;BME280_pressure;Samples;Min_cycle;Max_cycle;Signal;HPM_P1;HPM_P2
2021/06/05 00:00:26;;;;;;;11.45;7.53;;;;;;;22.65;50.31;100664.88;5042310;28;20045;-61
2021/06/05 00:02:52;;;;;;;7.78;6.93;;;;;;;22.62;50.24;100668.06;5045279;28;20474;-57
2021/06/05 00:05:19;;;;;;;8.63;6.90;;;;;;;22.57;50.42;100665.94;5045939;28;20132;-61
2021/06/05 00:07:45;;;;;;;7.60;6.68;;;;;;;22.55;50.51;100665.31;5041556;28;20129;-61
2021/06/05 00:10:19;;;;;;;8.43;7.25;;;;;;;22.50;50.33;100665.13;5032494;28;20054;-60
2021/06/05 00:12:45;;;;;;;8.30;6.70;;;;;;;22.52;50.05;100670.38;5044373;28;20057;-56
2021/06/05 00:15:15;;;;;;;8.52;7.50;;;;;;;22.50;49.85;100670.59;5039303;28;20057;-63
2021/06/05 00:17:41;;;;;;;10.43;7.30;;;;;;;22.35;50.59;100667.22;5033135;28;20408;-56
2021/06/05 00:20:09;;;;;;;10.23;7.30;;;;;;;22.35;50.81;100668.06;5032745;28;20045;-62
2021/06/05 00:22:35;;;;;;;8.02;7.05;;;;;;;22.29;50.70;100666.19;5049463;28;20045;-60
2021/06/05 00:25:01;;;;;;;9.05;7.25;;;;;;;22.26;50.80;100666.59;5047259;28;20051;-60
2021/06/05 00:27:28;;;;;;;8.20;7.20;;;;;;;22.21;50.85;100669.13;5034431;28;20292;-61
2021/06/05 00:29:54;;;;;;;7.93;7.13;;;;;;;22.14;51.02;100673.75;5046263;28;20064;-61
2021/06/05 00:32:20;;;;;;;8.88;7.05;;;;;;;22.14;50.86;100671.88;5043411;28;20159;-57
2021/06/05 00:34:46;;;;;;;8.77;7.55;;;;;;;22.08;50.83;100669.94;5034353;28;20053;-59
2021/06/05 00:37:12;;;;;;;9.48;7.53;;;;;;;22.07;50.87;100672.91;5042424;28;20111;-61
2021/06/05 00:39:38;;;;;;;11.50;8.00;;;;;;;22.06;51.07;100671.22;5048394;28;20147;-58
2021/06/05 00:42:04;;;;;;;7.78;6.95;;;;;;;22.08;51.26;100677.31;5049402;28;20084;-61
2021/06/05 00:44:32;;;;;;;8.85;7.32;;;;;;;21.95;51.37;100680.00;5037771;28;20046;-59
2021/06/05 00:46:58;;;;;;;12.23;7.20;;;;;;;21.93;51.52;100682.09;5045945;28;20091;-59
2021/06/05 00:49:24;;;;;;;10.38;7.40;;;;;;;22.03;51.23;100679.81;5048751;28;20053;-61
2021/06/05 00:51:52;;;;;;;10.18;7.75;;;;;;;21.96;50.98;100678.94;5033304;28;20048;-59
2021/06/05 00:54:19;;;;;;;10.10;7.55;;;;;;;21.89;51.06;100668.81;5044991;28;20115;-62
2021/06/05 00:56:49;;;;;;;11.80;8.15;;;;;;;21.92;51.51;100669.50;5042859;28;20419;-60
2021/06/05 00:59:15;;;;;;;11.48;7.78;;;;;;;21.90;51.59;100675.13;5041146;28;20049;-60
2021/06/05 01:01:42;;;;;;;8.63;7.57;;;;;;;21.89;51.55;100666.09;5041967;28;20469;-59
2021/06/05 01:04:10;;;;;;;9.93;7.70;;;;;;;21.85;51.89;100667.56;5036719;28;20500;-59
2021/06/05 01:06:42;;;;;;;11.93;7.47;;;;;;;21.85;52.01;100659.38;5044908;28;20110;-62
2021/06/05 01:09:14;;;;;;;9.52;8.10;;;;;;;21.79;51.94;100667.56;5032028;28;20060;-61
2021/06/05 01:11:48;;;;;;;10.18;7.88;;;;;;;21.81;52.61;100669.03;5033223;28;20094;-60
2021/06/05 01:14:25;;;;;;;8.73;7.57;;;;;;;21.79;52.07;100660.22;5046103;28;20111;-61
2021/06/05 01:16:57;;;;;;;9.88;8.05;;;;;;;21.74;52.18;100664.59;5047550;28;20491;-61
2021/06/05 01:19:40;;;;;;;9.45;7.45;;;;;;;21.71;52.44;100668.59;5041155;28;20049;-62
2021/06/05 01:22:18;;;;;;;8.20;7.20;;;;;;;21.68;52.45;100658.09;5021354;28;20130;-63
2021/06/05 01:25:01;;;;;;;9.85;7.25;;;;;;;21.60;52.38;100650.09;5046563;28;20442;-62
2021/06/05 01:27:31;;;;;;;9.30;8.30;;;;;;;21.64;52.00;100653.22;5047110;28;20411;-60
2021/06/05 01:30:09;;;;;;;10.55;7.28;;;;;;;21.65;52.16;100654.91;5041782;28;20487;-61
2021/06/05 01:32:37;;;;;;;9.40;7.68;;;;;;;21.65;52.26;100652.19;5042555;28;20507;-62
2021/06/05 01:35:05;;;;;;;14.02;7.57;;;;;;;21.60;52.48;100650.09;5048314;28;20049;-60
2021/06/05 01:37:34;;;;;;;8.75;7.85;;;;;;;21.63;52.27;100652.38;5047197;28;20060;-60
2021/06/05 01:40:00;;;;;;;10.10;8.10;;;;;;;21.60;52.37;100650.09;5048284;28;20045;-61
2021/06/05 01:42:30;;;;;;;10.20;7.78;;;;;;;21.53;52.46;100649.22;5046501;28;20056;-60
2021/06/05 01:44:58;;;;;;;11.45;7.50;;;;;;;21.51;52.91;100643.97;5039873;28;20053;-61
2021/06/05 01:47:25;;;;;;;8.88;7.65;;;;;;;21.59;52.62;100642.94;5042365;28;20049;-59
2021/06/05 01:49:52;;;;;;;13.20;8.32;;;;;;;21.61;52.34;100646.31;5016476;28;20041;-60
2021/06/05 01:52:24;;;;;;;12.48;8.13;;;;;;;21.56;52.80;100640.63;5046899;28;20053;-58
2021/06/05 01:54:55;;;;;;;11.15;8.75;;;;;;;21.58;52.76;100636.63;5043971;28;20107;-60
2021/06/05 01:57:25;;;;;;;10.85;8.65;;;;;;;21.57;53.06;100634.13;5041711;28;20099;-61
2021/06/05 01:59:53;;;;;;;9.85;7.70;;;;;;;21.75;53.19;100628.88;5039756;28;20056;-60
2021/06/05 02:02:19;;;;;;;8.95;7.07;;;;;;;21.81;52.51;100633.53;5039533;28;20040;-60
2021/06/05 02:04:47;;;;;;;7.45;6.22;;;;;;;21.94;52.66;100627.22;5050475;28;20052;-60
2021/06/05 02:07:13;;;;;;;7.28;6.55;;;;;;;22.00;52.43;100629.13;5051827;28;20045;-62
2021/06/05 02:09:38;;;;;;;7.00;6.22;;;;;;;22.06;52.10;100632.94;5040113;28;20072;-62
2021/06/05 02:12:14;;;;;;;9.07;6.57;;;;;;;22.15;51.43;100629.81;5049251;28;20049;-61
2021/06/05 02:14:44;;;;;;;7.72;5.85;;;;;;;22.11;51.56;100628.53;5049016;28;20054;-61
2021/06/05 02:17:12;;;;;;;9.05;6.10;;;;;;;22.15;51.21;100620.75;5048755;28;20045;-62
2021/06/05 02:19:41;;;;;;;9.88;7.05;;;;;;;22.13;51.22;100618.22;5050850;28;20049;-61
2021/06/05 02:22:10;;;;;;;8.10;6.82;;;;;;;22.15;51.16;100620.75;5033532;28;20045;-62
2021/06/05 02:24:41;;;;;;;9.23;7.50;;;;;;;22.05;51.00;100625.78;5050877;28;20045;-60
2021/06/05 02:27:07;;;;;;;9.30;7.30;;;;;;;22.01;50.95;100632.69;5045177;28;20047;-62
2021/06/05 02:29:35;;;;;;;9.35;7.30;;;;;;;21.93;51.18;100636.50;5043910;28;20045;-61
2021/06/05 02:32:04;;;;;;;7.00;6.15;;;;;;;22.13;51.29;100631.03;5048203;28;20045;-61
2021/06/05 02:34:32;;;;;;;9.55;7.30;;;;;;;22.12;51.46;100634.84;5048426;28;20049;-60
2021/06/05 02:37:00;;;;;;;8.88;6.53;;;;;;;22.26;51.24;100633.81;5050361;28;20442;-62
2021/06/05 02:39:29;;;;;;;7.22;6.43;;;;;;;22.21;50.80;100628.09;5046268;28;20094;-64
2021/06/05 02:41:56;;;;;;;9.18;6.57;;;;;;;22.12;51.54;100622.00;5050118;28;20510;-61
2021/06/05 02:44:26;;;;;;;9.55;7.18;;;;;;;22.07;50.96;100621.81;5045303;28;20053;-63
2021/06/05 02:46:53;;;;;;;9.13;7.20;;;;;;;22.02;51.22;100626.16;5048725;28;20055;-60
2021/06/05 02:49:27;;;;;;;8.82;7.30;;;;;;;22.00;50.85;100622.81;5051346;28;20351;-61
2021/06/05 02:51:56;;;;;;;8.27;6.88;;;;;;;22.07;51.12;100629.16;5049273;28;20423;-62
2021/06/05 02:54:24;;;;;;;9.13;7.78;;;;;;;22.00;50.88;100622.81;5050980;28;20107;-63
2021/06/05 02:56:50;;;;;;;10.18;7.93;;;;;;;21.89;51.42;100622.38;5043936;28;20045;-60
2021/06/05 02:59:16;;;;;;;8.75;6.95;;;;;;;21.87;51.14;100618.19;5035375;28;20056;-61
2021/06/05 03:01:42;;;;;;;10.05;8.20;;;;;;;21.85;51.57;100617.56;5050128;28;20107;-61
2021/06/05 03:04:08;;;;;;;7.95;6.78;;;;;;;21.82;51.96;100623.44;5050526;28;20491;-61
2021/06/05 03:06:34;;;;;;;8.88;7.47;;;;;;;21.80;51.38;100622.81;5048598;28;20476;-62
2021/06/05 03:09:01;;;;;;;9.57;8.13;;;;;;;21.76;52.14;100621.53;5040691;28;20049;-60
2021/06/05 03:11:28;;;;;;;8.95;7.53;;;;;;;21.74;52.15;100627.19;5046317;28;20041;-60
2021/06/05 03:13:54;;;;;;;8.55;7.70;;;;;;;21.79;52.24;100616.50;5035943;28;20054;-59
2021/06/05 03:16:20;;;;;;;9.13;7.75;;;;;;;21.80;52.16;100615.47;5047591;28;20415;-62
2021/06/05 03:18:47;;;;;;;9.02;8.10;;;;;;;21.74;52.00;100610.81;5050025;28;20045;-60
2021/06/05 03:21:16;;;;;;;8.45;7.60;;;;;;;21.89;52.10;100607.88;5044651;28;20052;-62
2021/06/05 03:23:43;;;;;;;10.18;7.38;;;;;;;21.79;52.53;100615.66;5050804;28;20056;-58
2021/06/05 03:26:11;;;;;;;9.30;7.57;;;;;;;21.85;51.96;100614.81;5046450;28;20060;-61
2021/06/05 03:28:37;;;;;;;8.30;6.80;;;;;;;21.92;51.74;100617.56;5029643;28;20049;-59
2021/06/05 03:31:03;;;;;;;8.88;7.00;;;;;;;21.89;51.58;100610.59;5047100;28;20056;-60
2021/06/05 03:33:30;;;;;;;8.77;7.38;;;;;;;21.92;51.52;100617.56;5044731;28;20072;-60
2021/06/05 03:35:56;;;;;;;7.38;5.63;;;;;;;21.98;51.85;100612.09;5038960;28;20383;-61
2021/06/05 03:38:24;;;;;;;8.73;6.55;;;;;;;22.03;50.48;100616.94;5044555;28;20056;-59
2021/06/05 03:40:52;;;;;;;9.50;7.65;;;;;;;21.92;51.63;100620.31;5048075;28;20507;-61
2021/06/05 03:43:20;;;;;;;7.13;5.25;;;;;;;22.16;51.12;100619.72;5044539;28;20059;-62
2021/06/05 03:45:46;;;;;;;8.45;6.32;;;;;;;22.07;51.26;100615.50;5047429;28;20303;-60
2021/06/05 03:48:12;;;;;;;9.20;7.15;;;;;;;22.03;50.46;100616.94;5049691;28;20052;-62
2021/06/05 03:50:40;;;;;;;7.93;5.82;;;;;;;22.14;50.94;100619.09;5041490;28;20045;-60
2021/06/05 03:53:06;;;;;;;7.20;5.57;;;;;;;22.23;50.70;100623.25;5032281;28;20107;-62
2021/06/05 03:55:34;;;;;;;8.50;7.47;;;;;;;22.15;50.10;100626.22;5032465;28;20045;-59
2021/06/05 03:58:01;;;;;;;6.30;5.57;;;;;;;22.23;51.09;100620.53;5029664;28;20048;-62
2021/06/05 04:00:31;;;;;;;7.32;6.25;;;;;;;22.25;50.06;100617.56;5046600;28;20419;-57
2021/06/05 04:02:57;;;;;;;7.72;6.15;;;;;;;22.41;49.95;100615.28;5034644;28;20049;-61
2021/06/05 04:05:23;;;;;;;9.52;6.72;;;;;;;22.29;50.02;100622.44;5037543;28;20041;-62
2021/06/05 04:07:49;;;;;;;8.02;6.45;;;;;;;22.31;50.09;100633.16;5041903;28;20504;-61
2021/06/05 04:10:16;;;;;;;7.90;6.80;;;;;;;22.31;49.91;100631.25;5041456;28;20114;-61
2021/06/05 04:12:42;;;;;;;10.93;7.25;;;;;;;22.21;50.50;100632.72;5046169;28;20060;-61
2021/06/05 04:15:12;;;;;;;8.55;7.65;;;;;;;22.10;49.35;100631.47;5048774;28;20049;-60
2021/06/05 04:17:39;;;;;;;8.45;6.80;;;;;;;22.26;49.41;100631.06;5046578;28;20107;-60
2021/06/05 04:20:06;;;;;;;9.75;8.10;;;;;;;22.19;50.21;100632.94;5044536;28;20064;-62
2021/06/05 04:22:32;;;;;;;7.97;7.07;;;;;;;22.27;49.92;100632.75;5049089;28;20053;-60
2021/06/05 04:24:58;;;;;;;6.05;5.47;;;;;;;22.42;49.87;100627.88;5049880;28;20521;-58
2021/06/05 04:27:24;;;;;;;11.63;7.07;;;;;;;22.32;49.53;100629.38;5049267;28;20242;-61
2021/06/05 04:29:50;;;;;;;9.48;7.07;;;;;;;22.35;49.53;100626.19;5047991;28;20052;-59
2021/06/05 04:32:16;;;;;;;9.02;6.13;;;;;;;22.35;49.58;100618.84;5049488;28;20053;-58
2021/06/05 04:34:43;;;;;;;7.30;5.65;;;;;;;22.42;49.21;100621.56;5041947;28;20045;-60
2021/06/05 04:37:09;;;;;;;7.65;5.80;;;;;;;22.48;49.09;100617.97;5039552;28;20045;-60
2021/06/05 04:39:36;;;;;;;7.15;5.32;;;;;;;22.53;49.32;100618.19;5042149;28;20040;-60
2021/06/05 04:42:02;;;;;;;6.50;5.82;;;;;;;22.56;49.20;100622.38;5045604;28;20052;-61
2021/06/05 04:44:28;;;;;;;7.38;5.82;;;;;;;22.62;48.98;100629.75;5049351;28;20398;-60
2021/06/05 04:46:54;;;;;;;6.78;5.85;;;;;;;22.61;48.95;100622.56;5047441;28;20053;-61
2021/06/05 04:49:20;;;;;;;6.95;5.90;;;;;;;22.69;48.59;100625.09;5048236;28;20053;-59
2021/06/05 04:51:48;;;;;;;7.03;5.80;;;;;;;22.71;49.22;100633.91;5029627;28;20050;-61
2021/06/05 04:54:14;;;;;;;6.60;5.55;;;;;;;22.70;48.17;100624.03;5049274;28;20045;-62
2021/06/05 04:56:43;;;;;;;7.88;6.25;;;;;;;22.71;48.67;100632.03;5044606;28;20045;-61
2021/06/05 04:59:10;;;;;;;8.00;5.82;;;;;;;22.78;47.98;100632.03;5038842;28;20115;-61
2021/06/05 05:01:36;;;;;;;8.15;6.38;;;;;;;22.80;47.95;100629.06;5048289;28;20045;-61
2021/06/05 05:04:02;;;;;;;7.80;5.32;;;;;;;22.82;47.81;100627.78;5042425;28;20431;-59
2021/06/05 05:06:29;;;;;;;8.82;6.57;;;;;;;22.81;47.45;100623.38;5034515;28;20052;-62
2021/06/05 05:08:56;;;;;;;8.82;6.15;;;;;;;22.80;47.63;100624.44;5036787;28;20041;-60
2021/06/05 05:11:22;;;;;;;7.90;6.07;;;;;;;22.83;47.64;100623.16;5043087;28;20045;-61
2021/06/05 05:13:49;;;;;;;6.22;5.63;;;;;;;22.83;48.03;100623.16;5047135;28;20115;-60
2021/06/05 05:16:16;;;;;;;8.63;7.45;;;;;;;22.51;47.81;100624.94;5046263;28;20388;-60
2021/06/05 05:18:45;;;;;;;8.18;6.93;;;;;;;22.68;48.22;100624.25;5048572;28;20048;-62
2021/06/05 05:21:12;;;;;;;8.10;5.65;;;;;;;22.77;47.81;100630.34;5032492;28;20049;-63
2021/06/05 05:23:38;;;;;;;7.88;6.30;;;;;;;22.83;47.46;100636.84;5037043;28;20048;-61
2021/06/05 05:26:08;;;;;;;6.63;5.53;;;;;;;22.87;47.38;100633.50;5041994;28;20284;-62
2021/06/05 05:28:35;;;;;;;8.45;5.68;;;;;;;22.87;47.45;100633.50;5032041;28;20037;-59
2021/06/05 05:31:04;;;;;;;10.10;6.22;;;;;;;22.84;47.66;100628.44;5046696;28;20045;-61
2021/06/05 05:33:32;;;;;;;6.65;5.70;;;;;;;22.85;47.62;100627.41;5029650;28;20045;-64
2021/06/05 05:35:58;;;;;;;7.28;5.80;;;;;;;22.90;47.21;100629.50;5039937;28;20446;-62
2021/06/05 05:38:24;;;;;;;7.72;6.10;;;;;;;22.88;47.23;100626.13;5040786;28;20052;-62
2021/06/05 05:40:51;;;;;;;7.63;5.72;;;;;;;22.92;47.41;100628.22;5050363;28;20049;-61
2021/06/05 05:43:18;;;;;;;7.60;5.03;;;;;;;22.93;47.18;100624.44;5052688;28;20045;-63
2021/06/05 05:45:44;;;;;;;8.23;6.72;;;;;;;22.96;46.85;100623.16;5052199;28;20053;-61
2021/06/05 05:48:12;;;;;;;9.70;6.43;;;;;;;22.95;47.30;100616.81;5049862;28;20128;-61
2021/06/05 05:50:41;;;;;;;7.35;5.53;;;;;;;22.98;46.94;100623.78;5050781;28;20044;-61
2021/06/05 05:53:08;;;;;;;8.18;6.03;;;;;;;22.98;47.08;100618.31;5036363;28;20103;-61
2021/06/05 05:55:34;;;;;;;8.73;6.00;;;;;;;22.99;47.14;100611.78;5052392;28;20041;-61
2021/06/05 05:58:06;;;;;;;8.02;5.93;;;;;;;22.99;46.88;100622.72;5040336;28;20037;-59
2021/06/05 06:00:36;;;;;;;8.32;5.82;;;;;;;22.99;47.21;100620.84;5044016;28;20045;-62
2021/06/05 06:03:02;;;;;;;7.95;5.97;;;;;;;23.00;46.86;100628.00;5047242;28;20045;-61
2021/06/05 06:05:29;;;;;;;6.22;5.25;;;;;;;23.03;47.18;100632.19;5050305;28;20099;-59
2021/06/05 06:07:54;;;;;;;7.75;6.07;;;;;;;23.07;46.87;100630.69;5036493;28;20493;-62
2021/06/05 06:10:22;;;;;;;7.15;5.68;;;;;;;23.08;47.02;100631.53;5044732;28;20123;-59
2021/06/05 06:12:48;;;;;;;7.38;6.25;;;;;;;23.08;46.77;100637.84;5034394;28;20049;-61
2021/06/05 06:15:17;;;;;;;7.43;6.47;;;;;;;22.99;46.79;100631.78;5050744;28;20056;-62
2021/06/05 06:17:45;;;;;;;7.60;6.22;;;;;;;23.02;46.92;100636.81;5050059;28;20045;-62
2021/06/05 06:20:16;;;;;;;8.18;6.03;;;;;;;23.07;46.94;100641.63;5051363;28;20072;-61
2021/06/05 06:22:42;;;;;;;8.27;5.60;;;;;;;23.08;46.77;100632.38;5050878;28;20041;-61
2021/06/05 06:25:09;;;;;;;9.40;7.10;;;;;;;22.98;47.26;100630.09;5050304;28;20079;-61
2021/06/05 06:27:35;;;;;;;8.85;6.55;;;;;;;23.11;47.09;100626.47;5051571;28;20044;-59
2021/06/05 06:30:02;;;;;;;7.07;5.72;;;;;;;23.16;47.09;100639.50;5043145;28;20384;-59
2021/06/05 06:32:28;;;;;;;5.90;5.07;;;;;;;23.19;46.86;100636.31;5047013;28;20543;-59
2021/06/05 06:34:55;;;;;;;7.90;4.97;;;;;;;23.20;46.72;100636.09;5044487;28;20068;-60
2021/06/05 06:37:21;;;;;;;5.72;4.90;;;;;;;23.23;46.28;100634.84;5042833;28;20103;-60
2021/06/05 06:39:47;;;;;;;8.60;4.93;;;;;;;23.24;46.63;100636.53;5047345;28;20053;-60
2021/06/05 06:42:12;;;;;;;5.05;4.47;;;;;;;23.25;46.78;100638.22;5050843;28;20140;-61
2021/06/05 06:44:38;;;;;;;6.38;5.00;;;;;;;23.25;46.34;100639.03;5042763;28;20126;-62
2021/06/05 06:47:06;;;;;;;7.22;5.68;;;;;;;23.26;46.70;100638.00;5049625;28;20429;-57
2021/06/05 06:49:32;;;;;;;7.25;5.13;;;;;;;23.28;46.30;100643.25;5049701;28;20051;-60
2021/06/05 06:51:59;;;;;;;7.70;5.50;;;;;;;23.27;46.35;100647.88;5050169;28;20041;-60
2021/06/05 06:54:25;;;;;;;7.93;6.00;;;;;;;23.25;46.64;100643.69;5033275;28;20045;-58
2021/06/05 06:56:51;;;;;;;6.53;5.75;;;;;;;23.26;46.82;100643.47;5045851;28;20049;-58
2021/06/05 06:59:17;;;;;;;9.48;6.03;;;;;;;23.28;46.43;100643.25;5035069;28;20562;-58
2021/06/05 07:01:44;;;;;;;6.60;5.90;;;;;;;23.27;46.67;100641.56;5042521;28;20129;-57
2021/06/05 07:04:10;;;;;;;8.20;5.55;;;;;;;23.31;46.72;100642.78;5025030;28;20045;-57
2021/06/05 07:06:37;;;;;;;8.00;6.13;;;;;;;23.28;46.44;100643.25;5033219;28;20076;-62
2021/06/05 07:09:06;;;;;;;8.65;6.38;;;;;;;23.30;46.83;100646.59;5044900;28;20049;-56
2021/06/05 07:11:35;;;;;;;9.02;6.13;;;;;;;23.31;46.37;100637.31;5041278;28;20291;-58
2021/06/05 07:14:03;;;;;;;6.10;5.50;;;;;;;23.32;46.50;100642.59;5045477;28;20098;-57
2021/06/05 07:16:31;;;;;;;8.65;6.80;;;;;;;23.31;46.75;100648.28;5049218;28;20469;-62
2021/06/05 07:18:57;;;;;;;8.05;6.35;;;;;;;23.32;46.64;100644.47;5048775;28;20367;-58
2021/06/05 07:21:23;;;;;;;8.18;6.20;;;;;;;23.34;47.52;100643.22;5038744;28;20171;-61
2021/06/05 07:23:49;;;;;;;8.63;6.68;;;;;;;23.38;47.59;100642.78;5048636;28;20040;-55
2021/06/05 07:26:20;;;;;;;11.00;6.57;;;;;;;23.32;47.09;100639.00;5050271;28;20063;-59
2021/06/05 07:28:49;;;;;;;7.43;6.22;;;;;;;23.36;47.46;100632.03;5034406;28;20048;-59
2021/06/05 07:31:18;;;;;;;8.23;6.15;;;;;;;23.32;47.50;100634.38;5049023;28;20068;-61
2021/06/05 07:33:45;;;;;;;7.82;5.97;;;;;;;23.37;47.47;100635.63;5048235;28;20047;-59
2021/06/05 07:36:15;;;;;;;7.13;6.18;;;;;;;23.36;47.60;100631.22;5044359;28;20052;-58
2021/06/05 07:38:41;;;;;;;8.70;6.32;;;;;;;23.37;47.34;100632.88;5043700;28;20041;-61
2021/06/05 07:41:07;;;;;;;7.55;5.93;;;;;;;23.36;47.49;100632.03;5048749;28;20124;-64
2021/06/05 07:43:35;;;;;;;6.90;5.70;;;;;;;23.38;47.20;100632.66;5042400;28;20049;-60
2021/06/05 07:46:03;;;;;;;8.25;6.22;;;;;;;23.32;47.07;100639.00;5042349;28;20132;-54
2021/06/05 07:48:30;;;;;;;8.02;5.75;;;;;;;23.37;47.15;100633.72;5050437;28;20348;-61
2021/06/05 07:50:56;;;;;;;7.75;5.78;;;;;;;23.36;46.92;100632.03;5047921;28;20507;-59
2021/06/05 07:53:23;;;;;;;6.75;5.45;;;;;;;23.36;47.21;100634.78;5048559;28;20053;-56
2021/06/05 07:55:49;;;;;;;7.90;5.80;;;;;;;23.39;46.87;100636.25;5048512;28;20053;-59
2021/06/05 07:58:15;;;;;;;7.05;5.65;;;;;;;23.43;47.07;100632.00;5039457;28;20099;-58
2021/06/05 08:00:43;;;;;;;7.10;5.90;;;;;;;23.41;47.20;100626.75;5044697;28;20053;-61
2021/06/05 08:03:09;;;;;;;7.93;5.57;;;;;;;23.41;47.05;100624.00;5040698;28;20060;-57
2021/06/05 08:05:37;;;;;;;5.70;5.10;;;;;;;23.41;47.13;100626.75;5044720;28;20110;-58
2021/06/05 08:08:03;;;;;;;12.40;5.60;;;;;;;23.34;46.61;100628.69;5039064;28;20045;-64
2021/06/05 08:10:30;;;;;;;10.55;5.60;;;;;;;23.40;47.09;100625.06;5036298;28;20052;-61
2021/06/05 08:12:56;;;;;;;9.43;6.00;;;;;;;23.41;47.26;100620.41;5033701;28;20388;-62
2021/06/05 08:15:25;;;;;;;7.10;5.57;;;;;;;23.42;46.91;100627.56;5048833;28;20178;-61
2021/06/05 08:17:52;;;;;;;8.73;5.88;;;;;;;23.43;46.85;100632.84;5048286;28;20568;-59
2021/06/05 08:20:24;;;;;;;8.32;5.50;;;;;;;23.41;47.02;100614.94;5042341;28;20462;-60
2021/06/05 08:22:50;;;;;;;8.35;5.93;;;;;;;23.40;46.86;100622.31;5040397;28;20396;-59
2021/06/05 08:25:16;;;;;;;8.30;5.38;;;;;;;23.44;46.89;100618.09;5033540;28;20511;-56
2021/06/05 08:27:43;;;;;;;8.90;6.10;;;;;;;23.43;46.73;100619.13;5045184;28;20340;-57
2021/06/05 08:30:14;;;;;;;6.72;5.78;;;;;;;23.43;46.64;100619.13;5034665;28;20057;-59
2021/06/05 08:32:39;;;;;;;8.63;5.45;;;;;;;23.45;47.05;100614.31;5043980;28;20503;-55
2021/06/05 08:35:08;;;;;;;8.18;5.40;;;;;;;23.47;47.07;100611.34;5049616;28;20052;-61
2021/06/05 08:37:35;;;;;;;9.77;5.13;;;;;;;23.45;46.95;100617.03;5031219;28;20057;-57
2021/06/05 08:40:01;;;;;;;6.20;5.35;;;;;;;23.46;46.83;100617.88;5049068;28;20051;-57
2021/06/05 08:42:34;;;;;;;9.85;5.50;;;;;;;23.47;46.64;100617.66;5023634;28;20053;-58
2021/06/05 08:45:01;;;;;;;6.63;5.68;;;;;;;23.50;46.75;100614.47;5037278;28;20050;-58
2021/06/05 08:47:30;;;;;;;6.40;5.15;;;;;;;23.50;46.96;100614.47;5024705;28;20226;-61
2021/06/05 08:49:57;;;;;;;8.50;6.05;;;;;;;23.50;47.07;100611.72;5033622;28;20045;-59
2021/06/05 08:52:34;;;;;;;6.25;5.55;;;;;;;23.53;46.87;100618.66;5033484;28;20235;-62
2021/06/05 08:55:05;;;;;;;6.32;5.20;;;;;;;23.55;46.72;100614.63;5041683;28;20045;-57
2021/06/05 08:57:33;;;;;;;5.85;5.25;;;;;;;23.54;47.02;100621.19;5032446;28;20048;-58
2021/06/05 09:00:11;;;;;;;7.00;6.30;;;;;;;23.55;46.95;100616.53;5040772;28;20052;-58
2021/06/05 09:02:39;;;;;;;7.28;5.72;;;;;;;23.56;46.63;100619.09;5017519;28;20107;-58
2021/06/05 09:05:08;;;;;;;7.45;5.35;;;;;;;23.58;46.48;100617.00;5025941;28;20045;-58
2021/06/05 09:07:36;;;;;;;9.38;5.43;;;;;;;23.61;46.73;100618.44;5029254;28;20048;-66
2021/06/05 09:10:04;;;;;;;6.53;5.15;;;;;;;23.64;46.58;100615.25;5028820;28;20049;-59
2021/06/05 09:12:30;;;;;;;8.02;5.13;;;;;;;23.68;46.62;100612.91;5025065;28;20049;-58
2021/06/05 09:14:57;;;;;;;9.30;5.20;;;;;;;23.68;46.59;100607.44;5043648;28;20175;-60
2021/06/05 09:17:33;;;;;;;7.43;5.13;;;;;;;23.67;46.50;100606.59;5044074;28;20079;-56
2021/06/05 09:20:06;;;;;;;7.32;5.28;;;;;;;23.66;47.31;100601.34;5028404;28;20049;-56
2021/06/05 09:22:36;;;;;;;10.13;5.57;;;;;;;23.66;46.85;100601.34;5027579;28;20381;-63
2021/06/05 09:25:20;;;;;;;6.75;5.30;;;;;;;23.65;46.87;100600.50;5034969;28;20103;-58
2021/06/05 09:27:46;;;;;;;8.93;5.35;;;;;;;23.67;46.53;100597.53;5017878;28;20502;-58
2021/06/05 09:30:31;;;;;;;8.93;5.68;;;;;;;23.69;46.35;100595.44;5030223;28;20057;-55
2021/06/05 09:33:01;;;;;;;7.75;5.57;;;;;;;23.68;46.67;100599.22;5041336;28;20053;-57
2021/06/05 09:35:29;;;;;;;7.43;5.63;;;;;;;23.69;46.39;100595.44;5041898;28;20188;-58
2021/06/05 09:38:17;;;;;;;9.30;5.90;;;;;;;23.70;46.65;100592.47;5012583;28;20330;-59
2021/06/05 09:40:57;;;;;;;5.40;4.53;;;;;;;23.73;46.36;100596.66;5036081;28;20068;-60
2021/06/05 09:43:25;;;;;;;9.80;5.35;;;;;;;23.76;46.64;100593.47;5032585;28;20046;-56
2021/06/05 09:46:05;;;;;;;11.10;5.32;;;;;;;23.80;46.60;100594.72;5043768;28;20053;-56
2021/06/05 09:48:35;;;;;;;7.43;5.55;;;;;;;23.81;47.11;100589.00;5045590;28;20177;-59
2021/06/05 09:51:04;;;;;;;7.20;5.63;;;;;;;23.80;46.32;100586.50;5034363;28;20056;-60
2021/06/05 09:53:34;;;;;;;6.68;5.70;;;;;;;23.89;46.32;100593.38;5021010;28;20048;-57
2021/06/05 09:56:03;;;;;;;6.07;5.47;;;;;;;23.91;45.83;100597.56;5043235;28;20053;-62
2021/06/05 09:58:37;;;;;;;9.07;5.35;;;;;;;23.87;46.18;100596.34;5028713;28;20749;-55
2021/06/05 10:01:15;;;;;;;8.45;5.50;;;;;;;23.87;45.87;100598.22;5031440;28;20468;-61
2021/06/05 10:03:41;;;;;;;6.25;4.60;;;;;;;23.88;45.86;100584.31;5034583;28;20048;-59
2021/06/05 10:06:23;;;;;;;8.10;5.40;;;;;;;23.96;45.56;100587.84;5039408;28;20071;-58
2021/06/05 10:08:50;;;;;;;11.13;5.65;;;;;;;23.99;44.87;100580.00;5032566;28;20048;-50
2021/06/05 10:11:24;;;;;;;5.70;4.82;;;;;;;24.04;45.66;100577.44;5036609;28;20135;-56
2021/06/05 10:13:58;;;;;;;7.80;4.45;;;;;;;24.05;46.80;100586.50;5035559;28;20057;-53
2021/06/05 10:16:26;;;;;;;6.95;4.85;;;;;;;24.05;46.51;100579.13;5020232;28;20111;-57
2021/06/05 10:18:57;;;;;;;9.45;4.82;;;;;;;24.04;45.54;100577.44;5041930;28;20499;-55
2021/06/05 10:21:27;;;;;;;11.80;5.43;;;;;;;24.07;46.05;100577.00;5045873;28;20041;-58
2021/06/05 10:24:00;;;;;;;7.20;5.15;;;;;;;24.07;45.80;100571.50;5044406;28;20064;-56
2021/06/05 10:26:32;;;;;;;7.50;4.50;;;;;;;24.07;48.24;100577.00;5033587;28;20053;-58
2021/06/05 10:29:02;;;;;;;5.63;4.78;;;;;;;24.12;46.08;100566.16;5039409;28;20050;-58
2021/06/05 10:31:28;;;;;;;7.00;4.93;;;;;;;24.24;47.37;100571.75;5036967;28;20060;-56
2021/06/05 10:33:57;;;;;;;9.00;6.00;;;;;;;24.23;44.50;100569.25;5039716;28;20053;-55
2021/06/05 10:36:28;;;;;;;7.15;4.80;;;;;;;24.23;47.40;100572.00;5043815;28;20052;-56
2021/06/05 10:39:00;;;;;;;7.45;5.03;;;;;;;24.21;45.17;100566.72;5022895;28;20458;-56
2021/06/05 10:41:29;;;;;;;6.90;5.10;;;;;;;24.36;44.25;100569.97;5028126;28;20044;-57
2021/06/05 10:43:56;;;;;;;6.38;4.65;;;;;;;24.38;44.52;100567.84;5026835;28;20057;-57
2021/06/05 10:46:48;;;;;;;6.97;4.95;;;;;;;24.35;46.34;100564.72;5043124;28;20180;-54
2021/06/05 10:49:23;;;;;;;9.68;4.38;;;;;;;24.32;46.53;100570.66;5035336;28;20123;-56
2021/06/05 10:52:06;;;;;;;6.68;4.60;;;;;;;24.21;45.22;100553.84;5052823;28;20511;-59
2021/06/05 10:54:38;;;;;;;7.00;4.93;;;;;;;24.14;47.66;100561.28;5037907;28;20275;-54
2021/06/05 10:57:08;;;;;;;9.05;4.95;;;;;;;24.13;46.45;100558.78;5042407;28;20291;-54
2021/06/05 10:59:42;;;;;;;7.88;4.82;;;;;;;24.15;45.38;100557.53;5025590;28;20041;-52
2021/06/05 11:02:08;;;;;;;5.78;4.93;;;;;;;24.17;45.42;100543.59;5039925;28;20056;-63
2021/06/05 11:04:42;;;;;;;6.40;5.10;;;;;;;24.19;44.87;100542.28;5023217;28;20052;-56
2021/06/05 11:07:24;;;;;;;6.30;5.05;;;;;;;24.23;45.33;100539.91;5032231;28;20041;-55
2021/06/05 11:09:52;;;;;;;6.30;5.45;;;;;;;24.24;45.71;100541.59;5038045;28;20052;-56
2021/06/05 11:12:45;;;;;;;8.52;5.43;;;;;;;24.27;47.33;100548.53;5031044;28;20480;-53
2021/06/05 11:15:34;;;;;;;8.48;5.95;;;;;;;24.36;45.75;100539.81;5035388;28;20053;-58
2021/06/05 11:18:32;;;;;;;7.53;5.63;;;;;;;24.42;45.87;100541.66;5041423;28;20052;-59
2021/06/05 11:21:00;;;;;;;6.15;5.47;;;;;;;24.37;44.82;100537.91;5049895;28;20048;-59
2021/06/05 11:23:31;;;;;;;7.45;5.50;;;;;;;24.35;44.24;100531.81;5034958;28;20459;-59
2021/06/05 11:26:31;;;;;;;6.03;5.22;;;;;;;24.41;43.95;100533.66;5031074;28;20041;-58
2021/06/05 11:28:56;;;;;;;10.35;5.70;;;;;;;24.51;43.96;100533.97;5029447;28;20484;-58
2021/06/05 11:31:51;;;;;;;6.45;5.65;;;;;;;24.53;44.45;100531.00;5050173;28;20055;-57